Time;durP1;ratioP1;P1;durP2;ratioP2;P2;SDS_P1;SDS_P2;PMS_P1;PMS_P2;Temp;Humidity;BMP_temperature;BMP_pressure;BME280_temperature;BME280_humidity;BME280_pressure;Samples;Min_cycle;Max_cycle;Signal;HPM_P1;HPM_P2
2022/07/13 00:02:03;;;;;;;4.45;4.00;;;;;;;;;;5101353;27;24429;-46
2022/07/13 00:04:29;;;;;;;4.25;3.95;;;;;;;;;;5102126;28;24426;-46
2022/07/13 00:06:54;;;;;;;4.40;4.00;;;;;;;;;;5095009;28;24893;-46
2022/07/13 00:09:19;;;;;;;4.40;4.00;;;;;;;;;;5087928;28;24475;-47
2022/07/13 00:11:44;;;;;;;3.90;3.60;;;;;;;;;;5096382;28;24817;-47
2022/07/13 00:14:09;;;;;;;3.70;3.40;;;;;;;;;;5095458;28;25358;-47
2022/07/13 00:16:34;;;;;;;4.30;3.90;;;;;;;;;;5097477;28;24429;-47
2022/07/13 00:18:59;;;;;;;4.28;3.88;;;;;;;;;;5095173;28;25019;-46
2022/07/13 00:21:25;;;;;;;4.20;3.90;;;;;;;;;;5103278;27;24418;-47
2022/07/13 00:23:50;;;;;;;3.97;3.67;;;;;;;;;;5094767;28;24472;-47
2022/07/13 00:26:15;;;;;;;3.60;3.30;;;;;;;;;;5094833;28;24525;-47
2022/07/13 00:28:40;;;;;;;3.30;3.00;;;;;;;;;;5095842;28;24531;-45
2022/07/13 00:31:05;;;;;;;3.87;3.30;;;;;;;;;;5099841;28;24512;-45
2022/07/13 00:33:30;;;;;;;4.07;3.67;;;;;;;;;;5095666;28;24913;-45
2022/07/13 00:35:56;;;;;;;4.18;3.80;;;;;;;;;;5094060;28;24425;-45
2022/07/13 00:38:21;;;;;;;4.00;3.70;;;;;;;;;;5103401;28;24429;-45
2022/07/13 00:40:46;;;;;;;4.00;3.70;;;;;;;;;;5093730;28;24417;-45
2022/07/13 00:43:11;;;;;;;3.20;3.00;;;;;;;;;;5097311;28;24588;-45
2022/07/13 00:45:36;;;;;;;3.60;3.30;;;;;;;;;;5087387;28;24879;-53
2022/07/13 00:48:01;;;;;;;4.17;3.77;;;;;;;;;;5089710;28;25019;-46
2022/07/13 00:50:27;;;;;;;3.50;3.20;;;;;;;;;;5096526;28;24529;-46
2022/07/13 00:52:52;;;;;;;3.70;3.40;;;;;;;;;;5092773;28;24833;-47
2022/07/13 00:55:17;;;;;;;3.47;3.20;;;;;;;;;;5086605;27;24433;-46
2022/07/13 00:57:42;;;;;;;3.13;2.93;;;;;;;;;;5093884;28;24959;-45
2022/07/13 01:00:11;;;;;;;3.60;3.40;;;;;;;;;;5092337;28;24464;-47
2022/07/13 01:02:37;;;;;;;3.50;3.20;;;;;;;;;;5093571;28;24478;-46
2022/07/13 01:05:02;;;;;;;3.60;3.30;;;;;;;;;;5097346;28;24525;-46
2022/07/13 01:07:29;;;;;;;3.30;3.10;;;;;;;;;;5101152;27;24862;-46
2022/07/13 01:09:54;;;;;;;3.40;3.20;;;;;;;;;;5095317;28;24486;-46
2022/07/13 01:12:20;;;;;;;3.40;3.20;;;;;;;;;;5084250;28;24430;-46
2022/07/13 01:14:45;;;;;;;3.80;3.30;;;;;;;;;;5101999;28;24436;-46
2022/07/13 01:17:10;;;;;;;3.00;2.80;;;;;;;;;;5108092;27;24777;-51
2022/07/13 01:19:36;;;;;;;3.20;2.90;;;;;;;;;;5104495;28;24457;-45
2022/07/13 01:22:02;;;;;;;4.73;3.10;;;;;;;;;;5088902;28;24477;-47
2022/07/13 01:24:29;;;;;;;2.95;2.75;;;;;;;;;;5104431;28;25222;-45
2022/07/13 01:26:54;;;;;;;2.90;2.70;;;;;;;;;;5098254;28;24495;-47
2022/07/13 01:29:19;;;;;;;3.10;2.90;;;;;;;;;;5093490;28;24426;-46
2022/07/13 01:31:44;;;;;;;3.20;2.70;;;;;;;;;;5102453;28;24466;-47
2022/07/13 01:34:09;;;;;;;2.75;2.55;;;;;;;;;;5088687;28;25058;-46
2022/07/13 01:36:35;;;;;;;2.67;2.47;;;;;;;;;;5106641;28;24406;-47
2022/07/13 01:39:01;;;;;;;3.00;2.80;;;;;;;;;;5097910;28;24425;-46
2022/07/13 01:41:27;;;;;;;2.63;2.43;;;;;;;;;;5097380;28;24433;-46
2022/07/13 01:43:53;;;;;;;3.10;2.60;;;;;;;;;;5093699;28;24749;-46
2022/07/13 01:46:18;;;;;;;2.87;2.67;;;;;;;;;;5100206;28;25064;-45
2022/07/13 01:48:43;;;;;;;2.95;2.75;;;;;;;;;;5089473;28;24441;-49
2022/07/13 01:51:08;;;;;;;3.20;2.57;;;;;;;;;;5096378;27;24425;-45
2022/07/13 01:53:33;;;;;;;2.85;2.65;;;;;;;;;;5091855;28;24516;-45
2022/07/13 01:55:58;;;;;;;2.90;2.70;;;;;;;;;;5087774;28;24462;-46
2022/07/13 01:58:23;;;;;;;3.00;2.78;;;;;;;;;;5100002;28;24429;-47
2022/07/13 02:00:49;;;;;;;2.90;2.70;;;;;;;;;;5096707;28;24791;-47
2022/07/13 02:03:14;;;;;;;3.08;2.88;;;;;;;;;;5098307;28;25057;-47
2022/07/13 02:05:39;;;;;;;2.70;2.50;;;;;;;;;;5093330;28;24482;-47
2022/07/13 02:08:05;;;;;;;3.00;2.60;;;;;;;;;;5094261;28;24986;-47
2022/07/13 02:10:36;;;;;;;2.40;2.30;;;;;;;;;;5102675;28;24485;-47
2022/07/13 02:13:04;;;;;;;2.60;2.50;;;;;;;;;;5096791;28;24463;-46
2022/07/13 02:15:29;;;;;;;3.00;2.80;;;;;;;;;;5095186;28;24433;-47
2022/07/13 02:17:54;;;;;;;2.70;2.50;;;;;;;;;;5092335;28;24448;-46
2022/07/13 02:20:20;;;;;;;2.80;2.60;;;;;;;;;;5100011;28;24418;-46
2022/07/13 02:22:45;;;;;;;3.10;2.90;;;;;;;;;;5099623;28;24425;-46
2022/07/13 02:25:11;;;;;;;3.10;2.80;;;;;;;;;;5095183;28;24521;-46
2022/07/13 02:27:36;;;;;;;2.60;2.40;;;;;;;;;;5087001;28;24445;-46
2022/07/13 02:30:01;;;;;;;2.30;2.20;;;;;;;;;;5101150;28;24422;-46
2022/07/13 02:32:26;;;;;;;2.50;2.30;;;;;;;;;;5098630;28;24421;-46
2022/07/13 02:34:52;;;;;;;3.40;2.70;;;;;;;;;;5093233;28;24425;-47
2022/07/13 02:37:17;;;;;;;2.38;2.28;;;;;;;;;;5094548;28;24424;-46
2022/07/13 02:39:42;;;;;;;2.33;2.20;;;;;;;;;;5099335;28;24413;-46
2022/07/13 02:42:07;;;;;;;2.05;1.95;;;;;;;;;;5094783;28;24959;-46
2022/07/13 02:44:32;;;;;;;2.50;2.30;;;;;;;;;;5085887;28;24453;-46
2022/07/13 02:46:57;;;;;;;2.20;2.10;;;;;;;;;;5085092;28;24455;-46
2022/07/13 02:49:22;;;;;;;2.50;2.30;;;;;;;;;;5102986;28;24516;-46
2022/07/13 02:51:47;;;;;;;2.20;2.10;;;;;;;;;;5093636;28;24452;-46
2022/07/13 02:54:13;;;;;;;2.55;2.35;;;;;;;;;;5099544;28;24482;-46
2022/07/13 02:56:38;;;;;;;2.40;2.30;;;;;;;;;;5101877;28;24450;-46
2022/07/13 02:59:03;;;;;;;2.20;2.10;;;;;;;;;;5095347;28;24922;-46
2022/07/13 03:01:28;;;;;;;2.10;2.00;;;;;;;;;;5097644;28;24471;-45
2022/07/13 03:03:53;;;;;;;2.60;2.40;;;;;;;;;;5098697;28;24891;-46
2022/07/13 03:06:18;;;;;;;2.20;2.10;;;;;;;;;;5087395;28;24509;-48
2022/07/13 03:08:43;;;;;;;2.30;2.20;;;;;;;;;;5097780;28;24425;-46
2022/07/13 03:11:09;;;;;;;2.47;2.22;;;;;;;;;;5095344;28;24479;-45
2022/07/13 03:13:35;;;;;;;2.60;2.40;;;;;;;;;;5099393;28;24500;-46
2022/07/13 03:16:00;;;;;;;2.70;2.50;;;;;;;;;;5099265;28;24823;-47
2022/07/13 03:18:25;;;;;;;2.30;2.20;;;;;;;;;;5096728;28;25010;-46
2022/07/13 03:20:50;;;;;;;2.20;2.10;;;;;;;;;;5093742;28;24525;-46
2022/07/13 03:23:15;;;;;;;2.40;2.20;;;;;;;;;;5090777;28;24765;-46
2022/07/13 03:25:41;;;;;;;2.13;2.03;;;;;;;;;;5091397;28;24430;-48
2022/07/13 03:28:06;;;;;;;2.42;2.10;;;;;;;;;;5094712;28;24417;-47
2022/07/13 03:30:31;;;;;;;3.03;2.33;;;;;;;;;;5098766;28;24495;-47
2022/07/13 03:32:56;;;;;;;2.50;2.30;;;;;;;;;;5095871;28;24901;-46
2022/07/13 03:35:21;;;;;;;2.42;2.30;;;;;;;;;;5091431;28;25249;-46
2022/07/13 03:37:47;;;;;;;2.20;2.10;;;;;;;;;;5103935;28;24422;-46
2022/07/13 03:40:12;;;;;;;2.57;2.37;;;;;;;;;;5093688;28;24479;-46
2022/07/13 03:42:37;;;;;;;2.20;2.00;;;;;;;;;;5095354;27;24423;-47
2022/07/13 03:45:03;;;;;;;2.37;2.10;;;;;;;;;;5105614;28;24523;-46
2022/07/13 03:47:28;;;;;;;2.50;2.30;;;;;;;;;;5097624;28;24939;-46
2022/07/13 03:49:53;;;;;;;2.60;2.40;;;;;;;;;;5084899;28;24425;-47
2022/07/13 03:52:19;;;;;;;2.38;2.05;;;;;;;;;;5093171;28;24541;-47
2022/07/13 03:54:44;;;;;;;2.00;1.90;;;;;;;;;;5099394;28;24987;-46
2022/07/13 03:57:10;;;;;;;2.40;2.20;;;;;;;;;;5097715;28;24429;-46
2022/07/13 03:59:35;;;;;;;2.10;2.00;;;;;;;;;;5090819;28;24815;-46
2022/07/13 04:02:00;;;;;;;2.20;2.10;;;;;;;;;;5096622;28;24513;-46
2022/07/13 04:04:27;;;;;;;2.30;2.10;;;;;;;;;;5097212;28;24421;-51
2022/07/13 04:06:52;;;;;;;2.75;2.55;;;;;;;;;;5104367;28;24421;-47
2022/07/13 04:09:17;;;;;;;3.10;2.83;;;;;;;;;;5089712;28;24432;-46
2022/07/13 04:11:43;;;;;;;3.40;3.10;;;;;;;;;;5090519;28;24470;-46
2022/07/13 04:14:08;;;;;;;2.90;2.50;;;;;;;;;;5102473;28;25064;-43
2022/07/13 04:16:33;;;;;;;3.80;3.40;;;;;;;;;;5098033;28;24988;-46
2022/07/13 04:18:58;;;;;;;3.25;3.05;;;;;;;;;;5101472;28;24443;-46
2022/07/13 04:21:23;;;;;;;4.00;3.70;;;;;;;;;;5089849;28;24429;-46
2022/07/13 04:23:49;;;;;;;3.33;3.13;;;;;;;;;;5100706;28;24429;-47
2022/07/13 04:26:14;;;;;;;3.80;3.38;;;;;;;;;;5105181;28;24410;-47
2022/07/13 04:28:39;;;;;;;3.10;2.90;;;;;;;;;;5097166;28;24985;-46
2022/07/13 04:31:04;;;;;;;3.30;3.10;;;;;;;;;;5102770;28;24429;-46
2022/07/13 04:33:30;;;;;;;3.30;3.00;;;;;;;;;;5093562;28;24449;-47
2022/07/13 04:35:55;;;;;;;3.43;3.00;;;;;;;;;;5089497;28;24438;-46
2022/07/13 04:38:20;;;;;;;4.10;3.80;;;;;;;;;;5092691;28;24428;-46
2022/07/13 04:40:46;;;;;;;3.35;3.15;;;;;;;;;;5089189;28;24437;-47
2022/07/13 04:43:11;;;;;;;4.13;3.47;;;;;;;;;;5094336;28;24425;-46
2022/07/13 04:45:36;;;;;;;4.57;3.10;;;;;;;;;;5092116;28;25064;-47
2022/07/13 04:48:01;;;;;;;3.55;3.25;;;;;;;;;;5090273;28;24519;-46
2022/07/13 04:50:26;;;;;;;3.10;2.90;;;;;;;;;;5095809;28;24453;-46
2022/07/13 04:52:52;;;;;;;3.00;2.80;;;;;;;;;;5101030;28;25047;-46
2022/07/13 04:55:17;;;;;;;2.92;2.72;;;;;;;;;;5094481;28;24791;-46
2022/07/13 04:57:42;;;;;;;2.77;2.57;;;;;;;;;;5090758;28;25258;-46
2022/07/13 05:00:08;;;;;;;3.70;3.40;;;;;;;;;;5113187;27;24440;-47
2022/07/13 05:02:34;;;;;;;3.10;2.80;;;;;;;;;;5098537;28;24840;-46
2022/07/13 05:04:59;;;;;;;2.97;2.77;;;;;;;;;;5096770;27;24433;-47
2022/07/13 05:07:24;;;;;;;2.50;2.30;;;;;;;;;;5093403;28;24740;-46
2022/07/13 05:09:49;;;;;;;2.97;2.60;;;;;;;;;;5091517;28;24487;-47
2022/07/13 05:12:14;;;;;;;3.10;2.80;;;;;;;;;;5095432;28;24414;-47
2022/07/13 05:14:39;;;;;;;3.83;2.45;;;;;;;;;;5094648;28;24967;-47
2022/07/13 05:17:05;;;;;;;2.70;2.50;;;;;;;;;;5089703;28;24555;-47
2022/07/13 05:19:30;;;;;;;2.57;2.37;;;;;;;;;;5085391;28;24428;-47
2022/07/13 05:21:55;;;;;;;3.00;2.70;;;;;;;;;;5087960;27;24522;-47
2022/07/13 05:24:20;;;;;;;2.72;2.53;;;;;;;;;;5095795;28;24429;-47
2022/07/13 05:26:45;;;;;;;2.77;2.57;;;;;;;;;;5084328;28;24437;-45
2022/07/13 05:29:10;;;;;;;3.10;2.90;;;;;;;;;;5091984;28;24496;-47
2022/07/13 05:31:35;;;;;;;2.78;2.58;;;;;;;;;;5091773;27;24426;-46
2022/07/13 05:34:01;;;;;;;2.70;2.50;;;;;;;;;;5098940;27;24520;-47
2022/07/13 05:36:26;;;;;;;3.90;2.50;;;;;;;;;;5087961;28;24425;-47
2022/07/13 05:38:51;;;;;;;2.80;2.60;;;;;;;;;;5090398;28;24429;-47
2022/07/13 05:41:16;;;;;;;3.20;2.90;;;;;;;;;;5084052;28;24522;-47
2022/07/13 05:43:41;;;;;;;2.80;2.60;;;;;;;;;;5096817;28;25099;-47
2022/07/13 05:46:07;;;;;;;2.60;2.50;;;;;;;;;;5094890;28;24574;-46
2022/07/13 05:48:34;;;;;;;2.72;2.53;;;;;;;;;;5097486;27;24442;-47
2022/07/13 05:50:59;;;;;;;2.95;2.75;;;;;;;;;;5081525;28;24501;-46
2022/07/13 05:53:24;;;;;;;2.80;2.57;;;;;;;;;;5106923;27;25038;-47
2022/07/13 05:55:49;;;;;;;3.03;2.70;;;;;;;;;;5089054;28;24430;-47
2022/07/13 05:58:14;;;;;;;3.70;2.83;;;;;;;;;;5090372;28;24426;-47
2022/07/13 06:00:39;;;;;;;2.60;2.40;;;;;;;;;;5090215;28;24444;-47
2022/07/13 06:03:04;;;;;;;2.60;2.40;;;;;;;;;;5081129;28;24580;-47
2022/07/13 06:05:30;;;;;;;2.88;2.67;;;;;;;;;;5093935;28;25248;-47
2022/07/13 06:07:55;;;;;;;2.80;2.60;;;;;;;;;;5096780;28;24433;-46
2022/07/13 06:10:21;;;;;;;2.88;2.67;;;;;;;;;;5099834;28;24426;-46
2022/07/13 06:12:46;;;;;;;4.72;3.00;;;;;;;;;;5088997;28;25060;-52
2022/07/13 06:15:11;;;;;;;3.50;2.70;;;;;;;;;;5087603;28;24418;-46
2022/07/13 06:17:36;;;;;;;2.97;2.77;;;;;;;;;;5092129;28;24439;-46
2022/07/13 06:20:01;;;;;;;3.70;2.40;;;;;;;;;;5082737;28;24437;-46
2022/07/13 06:22:26;;;;;;;2.70;2.50;;;;;;;;;;5095147;28;24424;-46
2022/07/13 06:24:52;;;;;;;2.70;2.50;;;;;;;;;;5084493;28;25274;-46
2022/07/13 06:27:17;;;;;;;3.70;2.10;;;;;;;;;;5084860;28;25089;-46
2022/07/13 06:29:42;;;;;;;2.30;2.20;;;;;;;;;;5083519;28;24843;-46
2022/07/13 06:32:08;;;;;;;2.97;2.50;;;;;;;;;;5083939;28;24437;-46
2022/07/13 06:34:33;;;;;;;2.70;2.50;;;;;;;;;;5091031;28;24469;-47
2022/07/13 06:36:58;;;;;;;2.93;2.70;;;;;;;;;;5094117;28;24427;-47
2022/07/13 06:39:23;;;;;;;3.80;2.80;;;;;;;;;;5094900;28;24776;-47
2022/07/13 06:41:48;;;;;;;3.40;2.90;;;;;;;;;;5091366;28;24474;-47
2022/07/13 06:44:14;;;;;;;2.53;2.33;;;;;;;;;;5099987;28;24425;-46
2022/07/13 06:46:39;;;;;;;2.97;2.78;;;;;;;;;;5095165;28;24773;-46
2022/07/13 06:49:04;;;;;;;2.88;2.67;;;;;;;;;;5101951;28;24570;-47
2022/07/13 06:51:29;;;;;;;2.72;2.53;;;;;;;;;;5088052;28;24437;-45
2022/07/13 06:53:54;;;;;;;2.87;2.43;;;;;;;;;;5085046;28;25170;-46
2022/07/13 06:56:20;;;;;;;3.10;2.70;;;;;;;;;;5085212;28;24427;-46
2022/07/13 06:58:46;;;;;;;3.63;2.60;;;;;;;;;;5095580;28;24519;-46
2022/07/13 07:01:11;;;;;;;2.70;2.50;;;;;;;;;;5094249;28;24903;-46
2022/07/13 07:03:36;;;;;;;3.60;2.55;;;;;;;;;;5094742;28;24409;-45
2022/07/13 07:06:01;;;;;;;2.83;2.60;;;;;;;;;;5109894;27;24418;-46
2022/07/13 07:08:26;;;;;;;2.70;2.50;;;;;;;;;;5099485;27;25081;-47
2022/07/13 07:10:51;;;;;;;2.70;2.50;;;;;;;;;;5101631;28;24434;-44
2022/07/13 07:13:16;;;;;;;2.33;2.13;;;;;;;;;;5106316;28;24418;-45
2022/07/13 07:15:42;;;;;;;2.80;2.50;;;;;;;;;;5096428;28;24426;-46
2022/07/13 07:18:07;;;;;;;2.70;2.50;;;;;;;;;;5091288;28;24413;-45
2022/07/13 07:20:33;;;;;;;2.90;2.10;;;;;;;;;;5104187;28;24417;-46
2022/07/13 07:22:58;;;;;;;2.60;2.40;;;;;;;;;;5107718;28;24467;-46
2022/07/13 07:25:23;;;;;;;4.05;2.65;;;;;;;;;;5108075;28;24409;-45
2022/07/13 07:27:48;;;;;;;2.60;2.40;;;;;;;;;;5108065;28;24954;-47
2022/07/13 07:30:14;;;;;;;3.10;2.40;;;;;;;;;;5109155;28;24464;-46
2022/07/13 07:32:39;;;;;;;3.90;2.40;;;;;;;;;;5092905;28;24989;-46
2022/07/13 07:35:06;;;;;;;4.17;3.00;;;;;;;;;;5101880;28;24486;-46
2022/07/13 07:37:31;;;;;;;3.47;2.70;;;;;;;;;;5111674;27;24404;-46
2022/07/13 07:39:56;;;;;;;3.37;2.50;;;;;;;;;;5108842;28;24389;-46
2022/07/13 07:42:22;;;;;;;2.88;2.58;;;;;;;;;;5090672;28;24402;-46
2022/07/13 07:44:47;;;;;;;2.90;2.70;;;;;;;;;;5088701;28;24434;-46
2022/07/13 07:47:12;;;;;;;2.70;2.50;;;;;;;;;;5096859;27;24448;-46
2022/07/13 07:49:37;;;;;;;2.30;2.10;;;;;;;;;;5100664;28;24449;-46
2022/07/13 07:52:02;;;;;;;2.80;2.50;;;;;;;;;;5100657;28;24434;-47
2022/07/13 07:54:28;;;;;;;3.00;2.70;;;;;;;;;;5109408;27;24850;-46
2022/07/13 07:56:53;;;;;;;3.50;2.50;;;;;;;;;;5098786;28;25237;-46
2022/07/13 07:59:18;;;;;;;4.10;2.30;;;;;;;;;;5095450;28;24429;-46
2022/07/13 08:01:43;;;;;;;3.10;2.40;;;;;;;;;;5108208;28;24443;-47
2022/07/13 08:04:08;;;;;;;2.50;2.30;;;;;;;;;;5107659;27;24412;-46
2022/07/13 08:06:34;;;;;;;5.30;2.50;;;;;;;;;;5098293;28;25034;-46
2022/07/13 08:08:59;;;;;;;3.63;2.50;;;;;;;;;;5094382;28;24984;-47
2022/07/13 08:11:24;;;;;;;3.50;2.30;;;;;;;;;;5090653;27;24415;-48
2022/07/13 08:13:51;;;;;;;4.45;2.60;;;;;;;;;;5094582;27;24453;-47
2022/07/13 08:16:17;;;;;;;2.45;2.10;;;;;;;;;;5092594;28;24434;-47
2022/07/13 08:18:45;;;;;;;4.53;2.65;;;;;;;;;;5101976;28;24463;-46
2022/07/13 08:21:11;;;;;;;4.50;3.00;;;;;;;;;;5099455;27;24970;-47
2022/07/13 08:23:51;;;;;;;3.03;2.47;;;;;;;;;;5090871;28;25571;-47
2022/07/13 08:26:17;;;;;;;3.88;2.80;;;;;;;;;;5094276;28;25212;-47
2022/07/13 08:28:43;;;;;;;3.13;2.40;;;;;;;;;;5090112;27;24899;-47
2022/07/13 08:31:08;;;;;;;3.92;2.65;;;;;;;;;;5089923;28;25264;-47
2022/07/13 08:38:35;;;;;;;4.33;2.60;;;;;;;;;;5088761;28;25038;-47
2022/07/13 08:39:05;;;;;;;5.32;2.67;;;;;;;;;;5087875;28;24430;-47
2022/07/13 08:41:32;;;;;;;2.63;2.43;;;;;;;;;;5110617;27;24405;-47
2022/07/13 08:43:57;;;;;;;2.58;2.38;;;;;;;;;;5110494;27;24878;-47
2022/07/13 08:46:22;;;;;;;2.73;2.53;;;;;;;;;;5112078;27;24555;-47
2022/07/13 08:48:49;;;;;;;2.30;2.07;;;;;;;;;;5104912;27;24445;-47
2022/07/13 08:51:18;;;;;;;3.00;2.50;;;;;;;;;;5093550;28;24522;-46
2022/07/13 08:53:43;;;;;;;2.20;2.10;;;;;;;;;;5087944;28;24421;-45
2022/07/13 08:56:08;;;;;;;3.30;2.30;;;;;;;;;;5104878;27;24430;-49
2022/07/13 08:58:35;;;;;;;2.40;2.30;;;;;;;;;;5103342;28;25006;-45
2022/07/13 09:01:00;;;;;;;3.83;2.40;;;;;;;;;;5117491;27;25111;-46
2022/07/13 09:03:26;;;;;;;3.27;2.30;;;;;;;;;;5105320;28;24425;-47
2022/07/13 09:05:51;;;;;;;2.20;2.00;;;;;;;;;;5106095;28;25103;-46
2022/07/13 09:08:18;;;;;;;3.67;2.60;;;;;;;;;;5090132;27;24421;-46
2022/07/13 09:10:58;;;;;;;4.00;2.47;;;;;;;;;;5103386;28;24538;-47
2022/07/13 09:13:36;;;;;;;3.70;2.20;;;;;;;;;;5102238;27;24959;-46
2022/07/13 09:16:17;;;;;;;3.00;2.40;;;;;;;;;;5103731;28;24825;-47
2022/07/13 09:18:46;;;;;;;2.40;2.20;;;;;;;;;;5109215;27;24556;-47
2022/07/13 09:21:11;;;;;;;2.20;2.10;;;;;;;;;;5102830;28;24443;-45
2022/07/13 09:23:36;;;;;;;2.40;2.20;;;;;;;;;;5104487;27;24474;-45
2022/07/13 09:26:01;;;;;;;2.23;2.00;;;;;;;;;;5105330;28;24436;-46
2022/07/13 09:28:27;;;;;;;2.50;2.10;;;;;;;;;;5103571;27;24829;-47
2022/07/13 09:30:58;;;;;;;2.30;2.10;;;;;;;;;;5119445;27;24809;-48
2022/07/13 09:33:36;;;;;;;2.10;2.00;;;;;;;;;;5122436;27;24439;-46
2022/07/13 09:36:15;;;;;;;2.40;2.20;;;;;;;;;;5116086;27;25094;-45
2022/07/13 09:38:42;;;;;;;2.70;2.20;;;;;;;;;;5110306;27;24460;-47
2022/07/13 09:41:20;;;;;;;1.90;1.80;;;;;;;;;;5111380;27;24752;-47
2022/07/13 09:46:52;;;;;;;1.40;1.30;;;;;;;;;;5102546;27;24408;-46
2022/07/13 09:49:17;;;;;;;2.05;1.60;;;;;;;;;;5093058;27;24442;-46
2022/07/13 09:51:46;;;;;;;2.10;1.90;;;;;;;;;;5089723;28;24428;-47
2022/07/13 09:54:12;;;;;;;1.73;1.50;;;;;;;;;;5101395;27;24483;-47
2022/07/13 09:56:41;;;;;;;1.40;1.30;;;;;;;;;;5094628;28;24521;-47
2022/07/13 09:59:07;;;;;;;1.50;1.40;;;;;;;;;;5094281;28;24959;-46
2022/07/13 10:01:32;;;;;;;1.60;1.50;;;;;;;;;;5088441;28;24454;-46
2022/07/13 10:03:58;;;;;;;1.50;1.40;;;;;;;;;;5094694;28;24444;-46
2022/07/13 10:06:23;;;;;;;1.40;1.30;;;;;;;;;;5088575;28;24480;-46
2022/07/13 10:08:49;;;;;;;2.00;1.50;;;;;;;;;;5087840;28;24456;-46
2022/07/13 10:11:14;;;;;;;1.27;1.20;;;;;;;;;;5100456;27;24523;-45
2022/07/13 10:13:39;;;;;;;1.40;1.30;;;;;;;;;;5095092;28;24479;-46
2022/07/13 10:16:04;;;;;;;1.50;1.40;;;;;;;;;;5090031;28;24422;-46
2022/07/13 10:18:30;;;;;;;1.37;1.27;;;;;;;;;;5084406;28;24962;-46
2022/07/13 10:21:01;;;;;;;1.92;1.35;;;;;;;;;;5086065;28;24942;-46
2022/07/13 10:23:33;;;;;;;2.10;1.70;;;;;;;;;;5087490;28;24524;-45
2022/07/13 10:25:59;;;;;;;1.73;1.63;;;;;;;;;;5104082;28;24401;-46
2022/07/13 10:28:24;;;;;;;1.40;1.30;;;;;;;;;;5105377;28;25028;-46
2022/07/13 10:30:49;;;;;;;1.60;1.50;;;;;;;;;;5091292;28;24429;-46
2022/07/13 10:33:19;;;;;;;2.90;1.80;;;;;;;;;;5092398;28;24628;-46
2022/07/13 10:35:52;;;;;;;2.10;1.50;;;;;;;;;;5091373;28;24438;-45
2022/07/13 10:38:18;;;;;;;2.90;1.70;;;;;;;;;;5099802;28;24469;-45
2022/07/13 10:40:43;;;;;;;1.60;1.50;;;;;;;;;;5104460;28;24429;-46
2022/07/13 10:43:09;;;;;;;1.60;1.47;;;;;;;;;;5097070;27;24430;-46
2022/07/13 10:45:41;;;;;;;1.77;1.67;;;;;;;;;;5108056;27;24433;-46
2022/07/13 10:48:06;;;;;;;2.25;1.70;;;;;;;;;;5121412;27;24845;-45
2022/07/13 10:50:44;;;;;;;1.80;1.52;;;;;;;;;;5118169;27;25020;-46
2022/07/13 10:53:09;;;;;;;1.60;1.50;;;;;;;;;;5108956;27;24788;-45
2022/07/13 10:55:34;;;;;;;1.70;1.50;;;;;;;;;;5107877;28;24433;-46
2022/07/13 10:58:00;;;;;;;2.20;1.30;;;;;;;;;;5107668;27;24410;-46
2022/07/13 11:00:43;;;;;;;1.30;1.20;;;;;;;;;;5113154;27;24424;-45
2022/07/13 11:03:22;;;;;;;1.70;1.10;;;;;;;;;;5120820;27;24555;-46
2022/07/13 11:06:06;;;;;;;1.00;1.00;;;;;;;;;;5109687;28;24499;-46
2022/07/13 11:08:32;;;;;;;1.80;1.00;;;;;;;;;;5101147;27;24829;-46
2022/07/13 11:11:11;;;;;;;1.77;1.23;;;;;;;;;;5105816;27;24970;-46
2022/07/13 11:13:36;;;;;;;2.10;1.30;;;;;;;;;;5103109;27;24508;-48
2022/07/13 11:16:01;;;;;;;1.63;1.30;;;;;;;;;;5109737;28;24555;-47
2022/07/13 11:18:34;;;;;;;1.60;1.50;;;;;;;;;;5111026;27;25267;-47
2022/07/13 11:21:06;;;;;;;2.60;1.60;;;;;;;;;;5121307;27;24526;-46
2022/07/13 11:26:21;;;;;;;2.05;1.80;;;;;;;;;;5093434;28;24440;-46
2022/07/13 11:28:50;;;;;;;1.88;1.70;;;;;;;;;;5098496;28;24429;-46
2022/07/13 11:31:15;;;;;;;1.90;1.80;;;;;;;;;;5100750;27;24483;-47
2022/07/13 11:33:58;;;;;;;1.70;1.60;;;;;;;;;;5096789;28;24963;-47
2022/07/13 11:36:24;;;;;;;2.00;1.80;;;;;;;;;;5105589;28;24894;-47
2022/07/13 11:38:50;;;;;;;3.28;1.90;;;;;;;;;;5107176;28;24939;-46
2022/07/13 11:41:19;;;;;;;2.30;2.10;;;;;;;;;;5105000;28;24383;-47
2022/07/13 11:43:44;;;;;;;2.10;2.00;;;;;;;;;;5099586;28;24691;-46
2022/07/13 11:46:11;;;;;;;3.60;2.10;;;;;;;;;;5091606;28;24425;-47
2022/07/13 11:48:36;;;;;;;3.75;1.90;;;;;;;;;;5096265;27;24561;-48
2022/07/13 11:51:05;;;;;;;2.20;1.90;;;;;;;;;;5093948;28;25272;-47
2022/07/13 11:53:31;;;;;;;2.10;2.00;;;;;;;;;;5095368;28;24483;-46
2022/07/13 11:55:57;;;;;;;1.80;1.70;;;;;;;;;;5087739;28;24438;-47
2022/07/13 11:58:23;;;;;;;2.30;1.60;;;;;;;;;;5085551;28;24425;-47
2022/07/13 12:00:48;;;;;;;2.80;2.00;;;;;;;;;;5087876;28;24960;-46
2022/07/13 12:03:14;;;;;;;1.90;1.80;;;;;;;;;;5096064;28;24421;-47
2022/07/13 12:05:42;;;;;;;2.27;2.10;;;;;;;;;;5086133;28;24564;-47
2022/07/13 12:08:07;;;;;;;1.75;1.40;;;;;;;;;;5097997;28;24448;-46
2022/07/13 12:10:35;;;;;;;1.60;1.50;;;;;;;;;;5094229;28;24831;-47
2022/07/13 12:13:01;;;;;;;1.50;1.40;;;;;;;;;;5101464;28;24559;-46
2022/07/13 12:15:26;;;;;;;1.60;1.50;;;;;;;;;;5085589;28;24895;-46
2022/07/13 12:17:54;;;;;;;2.15;1.40;;;;;;;;;;5099902;28;24876;-46
2022/07/13 12:20:20;;;;;;;1.50;1.40;;;;;;;;;;5098277;28;24528;-47
2022/07/13 12:22:52;;;;;;;1.70;1.60;;;;;;;;;;5090381;28;24521;-46
2022/07/13 12:25:23;;;;;;;1.50;1.40;;;;;;;;;;5094060;28;24563;-46
2022/07/13 12:27:50;;;;;;;2.17;1.60;;;;;;;;;;5084322;28;24510;-47
2022/07/13 12:30:15;;;;;;;1.98;1.50;;;;;;;;;;5089971;28;24430;-46
2022/07/13 12:32:59;;;;;;;1.50;1.40;;;;;;;;;;5096953;28;24804;-46
2022/07/13 12:35:31;;;;;;;2.50;1.60;;;;;;;;;;5103911;27;24800;-46
2022/07/13 12:37:58;;;;;;;1.50;1.40;;;;;;;;;;5102827;28;25017;-45
2022/07/13 12:40:42;;;;;;;1.40;1.30;;;;;;;;;;5105384;28;24685;-46
2022/07/13 12:43:23;;;;;;;1.90;1.30;;;;;;;;;;5099997;28;24414;-46
2022/07/13 12:45:55;;;;;;;2.00;1.30;;;;;;;;;;5097253;28;25097;-46
2022/07/13 12:48:24;;;;;;;1.80;1.20;;;;;;;;;;5092898;28;24477;-47
2022/07/13 12:51:02;;;;;;;1.90;1.35;;;;;;;;;;5102974;28;24523;-47
2022/07/13 12:53:45;;;;;;;1.50;1.40;;;;;;;;;;5100696;28;24947;-45
2022/07/13 12:56:11;;;;;;;2.15;1.40;;;;;;;;;;5087845;28;24429;-47
2022/07/13 12:58:40;;;;;;;1.50;1.40;;;;;;;;;;5102971;28;24448;-46
2022/07/13 13:01:06;;;;;;;1.73;1.40;;;;;;;;;;5101011;28;24417;-46
2022/07/13 13:03:31;;;;;;;1.40;1.30;;;;;;;;;;5096588;28;24430;-45
2022/07/13 13:05:56;;;;;;;1.80;1.40;;;;;;;;;;5084646;28;25040;-45
2022/07/13 13:08:21;;;;;;;2.40;1.30;;;;;;;;;;5102939;28;24429;-46
2022/07/13 13:10:46;;;;;;;1.40;1.30;;;;;;;;;;5103786;27;24435;-46
2022/07/13 13:13:11;;;;;;;1.80;1.40;;;;;;;;;;5083952;28;24946;-47
2022/07/13 13:15:37;;;;;;;1.40;1.30;;;;;;;;;;5085900;28;24422;-46
2022/07/13 13:18:02;;;;;;;1.60;1.50;;;;;;;;;;5091788;28;24451;-48
2022/07/13 13:20:27;;;;;;;1.50;1.30;;;;;;;;;;5098539;28;24418;-47
2022/07/13 13:22:52;;;;;;;1.58;1.48;;;;;;;;;;5097141;28;24525;-44
2022/07/13 13:25:17;;;;;;;1.60;1.20;;;;;;;;;;5083639;28;24422;-47
2022/07/13 13:27:42;;;;;;;1.57;1.40;;;;;;;;;;5085332;28;24836;-45
2022/07/13 13:32:51;;;;;;;1.33;1.23;;;;;;;;;;5098757;28;25157;-48
2022/07/13 13:35:17;;;;;;;1.45;1.35;;;;;;;;;;5097225;28;24438;-46
2022/07/13 13:37:42;;;;;;;3.20;1.40;;;;;;;;;;5086837;28;25032;-46
2022/07/13 13:40:07;;;;;;;1.80;1.50;;;;;;;;;;5091343;28;24416;-46
2022/07/13 13:42:32;;;;;;;1.60;1.50;;;;;;;;;;5087100;28;25013;-45
2022/07/13 13:44:57;;;;;;;2.65;1.50;;;;;;;;;;5094086;28;24856;-45
2022/07/13 13:47:23;;;;;;;1.58;1.48;;;;;;;;;;5096868;28;24480;-45
2022/07/13 13:49:48;;;;;;;1.75;1.65;;;;;;;;;;5082838;28;24485;-45
2022/07/13 13:52:13;;;;;;;1.70;1.60;;;;;;;;;;5085231;28;25013;-46
2022/07/13 13:54:38;;;;;;;1.60;1.30;;;;;;;;;;5101145;28;24426;-46
2022/07/13 13:57:03;;;;;;;1.50;1.30;;;;;;;;;;5101360;28;24413;-45
2022/07/13 13:59:28;;;;;;;2.00;1.40;;;;;;;;;;5092414;28;24468;-46
2022/07/13 14:01:53;;;;;;;2.60;1.40;;;;;;;;;;5092662;27;24515;-46
2022/07/13 14:04:19;;;;;;;1.50;1.40;;;;;;;;;;5087495;28;25098;-46
2022/07/13 14:06:47;;;;;;;2.25;1.40;;;;;;;;;;5092993;28;24586;-46
2022/07/13 14:09:12;;;;;;;1.40;1.30;;;;;;;;;;5089904;28;24422;-46
2022/07/13 14:11:40;;;;;;;1.60;1.40;;;;;;;;;;5090006;28;24568;-46
2022/07/13 14:14:05;;;;;;;1.40;1.30;;;;;;;;;;5100268;28;24556;-46
2022/07/13 14:16:30;;;;;;;1.50;1.40;;;;;;;;;;5092587;28;25162;-45
2022/07/13 14:18:56;;;;;;;1.67;1.58;;;;;;;;;;5093296;28;24465;-46
2022/07/13 14:21:21;;;;;;;1.90;1.50;;;;;;;;;;5095984;28;24897;-44
2022/07/13 14:23:46;;;;;;;1.80;1.50;;;;;;;;;;5101052;28;24504;-45
2022/07/13 14:26:11;;;;;;;2.57;1.43;;;;;;;;;;5096821;28;24471;-46
2022/07/13 14:28:36;;;;;;;1.57;1.47;;;;;;;;;;5096908;28;24426;-46
2022/07/13 14:31:01;;;;;;;2.22;1.52;;;;;;;;;;5087790;28;24414;-45
2022/07/13 14:33:27;;;;;;;2.80;1.53;;;;;;;;;;5104935;28;24483;-46
2022/07/13 14:35:52;;;;;;;1.73;1.40;;;;;;;;;;5094763;28;24436;-46
2022/07/13 14:38:18;;;;;;;1.92;1.50;;;;;;;;;;5104901;28;24501;-46
2022/07/13 14:40:44;;;;;;;1.88;1.50;;;;;;;;;;5098127;28;24524;-45
2022/07/13 14:43:09;;;;;;;1.30;1.30;;;;;;;;;;5096251;28;24507;-45
2022/07/13 14:45:35;;;;;;;1.30;1.20;;;;;;;;;;5101761;28;24784;-46
2022/07/13 14:48:02;;;;;;;1.53;1.40;;;;;;;;;;5085614;28;25008;-46
2022/07/13 14:50:28;;;;;;;1.50;1.40;;;;;;;;;;5089755;28;24418;-46